sensor_id;sensor_type;location;lat;lon;timestamp;temperature;humidity
57564;DHT22;43400;45.926;6.724;2023-03-01T00:00:17;1.40;90.60
57564;DHT22;43400;45.926;6.724;2023-03-01T00:02:49;1.30;90.90
57564;DHT22;43400;45.926;6.724;2023-03-01T00:05:20;1.20;90.80
57564;DHT22;43400;45.926;6.724;2023-03-01T00:07:53;1.20;90.90
57564;DHT22;43400;45.926;6.724;2023-03-01T00:10:24;1.30;90.80
57564;DHT22;43400;45.926;6.724;2023-03-01T00:12:57;1.40;90.70
57564;DHT22;43400;45.926;6.724;2023-03-01T00:15:29;1.50;90.30
57564;DHT22;43400;45.926;6.724;2023-03-01T00:18:01;1.50;90.20
57564;DHT22;43400;45.926;6.724;2023-03-01T00:20:33;1.60;90.00
57564;DHT22;43400;45.926;6.724;2023-03-01T00:23:06;1.50;89.50
57564;DHT22;43400;45.926;6.724;2023-03-01T00:25:42;1.50;89.90
57564;DHT22;43400;45.926;6.724;2023-03-01T00:28:14;1.40;90.50
57564;DHT22;43400;45.926;6.724;2023-03-01T00:30:47;1.40;90.50
57564;DHT22;43400;45.926;6.724;2023-03-01T00:33:19;1.30;90.60
57564;DHT22;43400;45.926;6.724;2023-03-01T00:35:50;1.30;90.40
57564;DHT22;43400;45.926;6.724;2023-03-01T00:38:22;1.50;90.40
57564;DHT22;43400;45.926;6.724;2023-03-01T00:40:54;1.50;90.40
57564;DHT22;43400;45.926;6.724;2023-03-01T00:43:26;1.50;90.50
57564;DHT22;43400;45.926;6.724;2023-03-01T00:46:01;1.50;90.20
57564;DHT22;43400;45.926;6.724;2023-03-01T00:48:35;1.50;90.10
57564;DHT22;43400;45.926;6.724;2023-03-01T00:51:19;1.50;90.30
57564;DHT22;43400;45.926;6.724;2023-03-01T00:53:53;1.40;89.90
57564;DHT22;43400;45.926;6.724;2023-03-01T00:56:26;1.50;90.10
57564;DHT22;43400;45.926;6.724;2023-03-01T00:58:58;1.50;89.20
57564;DHT22;43400;45.926;6.724;2023-03-01T01:01:31;1.50;90.00
57564;DHT22;43400;45.926;6.724;2023-03-01T01:04:09;1.60;90.10
57564;DHT22;43400;45.926;6.724;2023-03-01T01:06:43;1.60;89.80
57564;DHT22;43400;45.926;6.724;2023-03-01T01:09:16;1.60;89.50
57564;DHT22;43400;45.926;6.724;2023-03-01T01:11:50;1.60;89.00
57564;DHT22;43400;45.926;6.724;2023-03-01T01:14:23;1.60;89.20
57564;DHT22;43400;45.926;6.724;2023-03-01T01:16:55;1.60;88.80
57564;DHT22;43400;45.926;6.724;2023-03-01T01:19:27;1.60;88.70
57564;DHT22;43400;45.926;6.724;2023-03-01T01:21:59;1.60;89.50
57564;DHT22;43400;45.926;6.724;2023-03-01T01:24:31;1.60;88.70
57564;DHT22;43400;45.926;6.724;2023-03-01T01:27:03;1.60;88.20
57564;DHT22;43400;45.926;6.724;2023-03-01T01:29:35;1.60;89.70
57564;DHT22;43400;45.926;6.724;2023-03-01T01:32:07;1.50;90.10
57564;DHT22;43400;45.926;6.724;2023-03-01T01:34:40;1.50;90.10
57564;DHT22;43400;45.926;6.724;2023-03-01T01:37:12;1.50;89.40
57564;DHT22;43400;45.926;6.724;2023-03-01T01:39:44;1.50;88.90
57564;DHT22;43400;45.926;6.724;2023-03-01T01:42:17;1.50;89.00
57564;DHT22;43400;45.926;6.724;2023-03-01T01:45:26;1.60;89.20
57564;DHT22;43400;45.926;6.724;2023-03-01T01:48:09;1.60;89.00
57564;DHT22;43400;45.926;6.724;2023-03-01T01:50:42;1.70;88.40
57564;DHT22;43400;45.926;6.724;2023-03-01T01:53:16;1.60;88.10
57564;DHT22;43400;45.926;6.724;2023-03-01T01:55:53;1.60;88.50
57564;DHT22;43400;45.926;6.724;2023-03-01T01:58:28;1.60;89.00
57564;DHT22;43400;45.926;6.724;2023-03-01T02:01:00;1.50;89.90
57564;DHT22;43400;45.926;6.724;2023-03-01T02:03:35;1.50;89.70
57564;DHT22;43400;45.926;6.724;2023-03-01T02:06:26;1.50;89.10
57564;DHT22;43400;45.926;6.724;2023-03-01T02:09:03;1.50;89.50
57564;DHT22;43400;45.926;6.724;2023-03-01T02:11:37;1.50;89.40
57564;DHT22;43400;45.926;6.724;2023-03-01T02:14:09;1.50;89.40
57564;DHT22;43400;45.926;6.724;2023-03-01T02:16:41;1.50;88.90
57564;DHT22;43400;45.926;6.724;2023-03-01T02:19:26;1.50;88.90
57564;DHT22;43400;45.926;6.724;2023-03-01T02:22:25;1.50;88.80
57564;DHT22;43400;45.926;6.724;2023-03-01T02:30:48;1.50;89.70
57564;DHT22;43400;45.926;6.724;2023-03-01T02:33:20;1.40;90.10
57564;DHT22;43400;45.926;6.724;2023-03-01T02:35:54;1.40;89.90
57564;DHT22;43400;45.926;6.724;2023-03-01T02:38:26;1.40;90.20
57564;DHT22;43400;45.926;6.724;2023-03-01T02:41:00;1.40;90.20
57564;DHT22;43400;45.926;6.724;2023-03-01T02:43:33;1.40;90.10
57564;DHT22;43400;45.926;6.724;2023-03-01T02:46:16;1.30;90.10
57564;DHT22;43400;45.926;6.724;2023-03-01T02:48:51;1.30;90.40
57564;DHT22;43400;45.926;6.724;2023-03-01T02:51:51;1.30;90.70
57564;DHT22;43400;45.926;6.724;2023-03-01T02:57:01;1.20;90.60
57564;DHT22;43400;45.926;6.724;2023-03-01T02:59:35;1.30;90.60
57564;DHT22;43400;45.926;6.724;2023-03-01T03:02:20;1.40;90.50
57564;DHT22;43400;45.926;6.724;2023-03-01T03:04:51;1.30;90.30
57564;DHT22;43400;45.926;6.724;2023-03-01T03:07:23;1.40;90.10
57564;DHT22;43400;45.926;6.724;2023-03-01T03:09:55;1.40;90.10
57564;DHT22;43400;45.926;6.724;2023-03-01T03:12:26;1.40;90.00
57564;DHT22;43400;45.926;6.724;2023-03-01T03:14:58;1.40;89.90
57564;DHT22;43400;45.926;6.724;2023-03-01T03:17:30;1.50;89.90
57564;DHT22;43400;45.926;6.724;2023-03-01T03:20:06;1.50;89.70
57564;DHT22;43400;45.926;6.724;2023-03-01T03:22:39;1.50;89.70
57564;DHT22;43400;45.926;6.724;2023-03-01T03:25:11;1.50;90.30
57564;DHT22;43400;45.926;6.724;2023-03-01T03:27:44;1.50;90.50
57564;DHT22;43400;45.926;6.724;2023-03-01T03:30:18;1.50;90.50
57564;DHT22;43400;45.926;6.724;2023-03-01T03:32:50;1.50;90.60
57564;DHT22;43400;45.926;6.724;2023-03-01T03:35:28;1.50;90.50
57564;DHT22;43400;45.926;6.724;2023-03-01T03:38:05;1.50;90.50
57564;DHT22;43400;45.926;6.724;2023-03-01T03:40:38;1.50;90.60
57564;DHT22;43400;45.926;6.724;2023-03-01T03:43:15;1.50;90.40
57564;DHT22;43400;45.926;6.724;2023-03-01T03:45:49;1.60;90.20
57564;DHT22;43400;45.926;6.724;2023-03-01T03:48:21;1.50;90.20
57564;DHT22;43400;45.926;6.724;2023-03-01T03:50:54;1.40;90.40
57564;DHT22;43400;45.926;6.724;2023-03-01T03:53:28;1.50;90.20
57564;DHT22;43400;45.926;6.724;2023-03-01T03:56:00;1.50;90.30
57564;DHT22;43400;45.926;6.724;2023-03-01T03:58:32;1.50;90.40
57564;DHT22;43400;45.926;6.724;2023-03-01T04:01:03;1.50;90.30
57564;DHT22;43400;45.926;6.724;2023-03-01T04:03:35;1.50;90.20
57564;DHT22;43400;45.926;6.724;2023-03-01T04:06:07;1.50;90.40
57564;DHT22;43400;45.926;6.724;2023-03-01T04:08:39;1.40;90.30
57564;DHT22;43400;45.926;6.724;2023-03-01T04:11:11;1.40;90.50
57564;DHT22;43400;45.926;6.724;2023-03-01T04:13:43;1.40;90.70
57564;DHT22;43400;45.926;6.724;2023-03-01T04:16:15;1.40;90.60
57564;DHT22;43400;45.926;6.724;2023-03-01T04:18:47;1.40;90.60
57564;DHT22;43400;45.926;6.724;2023-03-01T04:21:18;1.40;90.20
57564;DHT22;43400;45.926;6.724;2023-03-01T04:23:50;1.50;90.30
57564;DHT22;43400;45.926;6.724;2023-03-01T04:26:21;1.50;90.40
57564;DHT22;43400;45.926;6.724;2023-03-01T04:28:53;1.50;90.50
57564;DHT22;43400;45.926;6.724;2023-03-01T04:31:25;1.50;90.40
57564;DHT22;43400;45.926;6.724;2023-03-01T04:33:56;1.50;89.80
57564;DHT22;43400;45.926;6.724;2023-03-01T04:36:29;1.50;89.10
57564;DHT22;43400;45.926;6.724;2023-03-01T04:39:01;1.60;89.00
57564;DHT22;43400;45.926;6.724;2023-03-01T04:41:32;1.60;89.20
57564;DHT22;43400;45.926;6.724;2023-03-01T04:44:04;1.50;89.60
57564;DHT22;43400;45.926;6.724;2023-03-01T04:46:36;1.40;89.60
57564;DHT22;43400;45.926;6.724;2023-03-01T04:49:08;1.40;90.00
57564;DHT22;43400;45.926;6.724;2023-03-01T04:51:39;1.40;90.30
57564;DHT22;43400;45.926;6.724;2023-03-01T04:54:11;1.40;90.30
57564;DHT22;43400;45.926;6.724;2023-03-01T04:56:42;1.40;90.20
57564;DHT22;43400;45.926;6.724;2023-03-01T04:59:14;1.30;90.30
57564;DHT22;43400;45.926;6.724;2023-03-01T05:01:46;1.40;90.40
57564;DHT22;43400;45.926;6.724;2023-03-01T05:04:17;1.40;90.30
57564;DHT22;43400;45.926;6.724;2023-03-01T05:06:50;1.30;90.30
57564;DHT22;43400;45.926;6.724;2023-03-01T05:09:21;1.20;90.50
57564;DHT22;43400;45.926;6.724;2023-03-01T05:11:53;1.20;90.50
57564;DHT22;43400;45.926;6.724;2023-03-01T05:14:24;1.20;90.70
57564;DHT22;43400;45.926;6.724;2023-03-01T05:16:56;1.40;90.70
57564;DHT22;43400;45.926;6.724;2023-03-01T05:19:27;1.50;90.80
57564;DHT22;43400;45.926;6.724;2023-03-01T05:21:59;1.40;90.90
57564;DHT22;43400;45.926;6.724;2023-03-01T05:24:33;1.50;90.80
57564;DHT22;43400;45.926;6.724;2023-03-01T05:27:05;1.50;90.90
57564;DHT22;43400;45.926;6.724;2023-03-01T05:29:36;1.60;90.70
57564;DHT22;43400;45.926;6.724;2023-03-01T05:32:08;1.50;90.50
57564;DHT22;43400;45.926;6.724;2023-03-01T05:34:40;1.40;90.50
57564;DHT22;43400;45.926;6.724;2023-03-01T05:37:12;1.40;90.80
57564;DHT22;43400;45.926;6.724;2023-03-01T05:39:44;1.30;90.80
57564;DHT22;43400;45.926;6.724;2023-03-01T05:42:15;1.30;90.50
57564;DHT22;43400;45.926;6.724;2023-03-01T05:44:47;1.40;90.60
57564;DHT22;43400;45.926;6.724;2023-03-01T05:47:19;1.40;90.60
57564;DHT22;43400;45.926;6.724;2023-03-01T05:49:50;1.50;90.60
57564;DHT22;43400;45.926;6.724;2023-03-01T05:52:22;1.50;90.60
57564;DHT22;43400;45.926;6.724;2023-03-01T05:54:54;1.60;90.40
57564;DHT22;43400;45.926;6.724;2023-03-01T05:57:28;1.70;90.40
57564;DHT22;43400;45.926;6.724;2023-03-01T05:59:59;1.60;90.30
57564;DHT22;43400;45.926;6.724;2023-03-01T06:02:31;1.60;90.10
57564;DHT22;43400;45.926;6.724;2023-03-01T06:05:03;1.50;90.00
57564;DHT22;43400;45.926;6.724;2023-03-01T06:07:35;1.60;90.10
57564;DHT22;43400;45.926;6.724;2023-03-01T06:10:08;1.50;90.00
57564;DHT22;43400;45.926;6.724;2023-03-01T06:12:42;1.40;90.40
57564;DHT22;43400;45.926;6.724;2023-03-01T06:15:15;1.40;90.10
57564;DHT22;43400;45.926;6.724;2023-03-01T06:17:47;1.30;90.30
57564;DHT22;43400;45.926;6.724;2023-03-01T06:20:21;1.50;90.40
57564;DHT22;43400;45.926;6.724;2023-03-01T06:22:53;1.50;89.90
57564;DHT22;43400;45.926;6.724;2023-03-01T06:25:26;1.50;90.20
57564;DHT22;43400;45.926;6.724;2023-03-01T06:27:58;1.60;90.00
57564;DHT22;43400;45.926;6.724;2023-03-01T06:30:29;1.60;89.90
57564;DHT22;43400;45.926;6.724;2023-03-01T06:33:01;1.60;88.30
57564;DHT22;43400;45.926;6.724;2023-03-01T06:35:33;1.60;87.80
57564;DHT22;43400;45.926;6.724;2023-03-01T06:38:05;1.70;87.40
57564;DHT22;43400;45.926;6.724;2023-03-01T06:40:36;1.70;87.00
57564;DHT22;43400;45.926;6.724;2023-03-01T06:43:08;1.70;86.80
57564;DHT22;43400;45.926;6.724;2023-03-01T06:45:40;1.70;86.10
57564;DHT22;43400;45.926;6.724;2023-03-01T06:48:11;1.70;86.30
57564;DHT22;43400;45.926;6.724;2023-03-01T06:50:43;1.60;87.00
57564;DHT22;43400;45.926;6.724;2023-03-01T06:53:14;1.60;88.30
57564;DHT22;43400;45.926;6.724;2023-03-01T06:55:46;1.60;89.20
57564;DHT22;43400;45.926;6.724;2023-03-01T06:58:18;1.60;88.40
57564;DHT22;43400;45.926;6.724;2023-03-01T07:00:49;1.60;88.10
57564;DHT22;43400;45.926;6.724;2023-03-01T07:03:21;1.70;88.40
57564;DHT22;43400;45.926;6.724;2023-03-01T07:05:53;1.60;87.20
57564;DHT22;43400;45.926;6.724;2023-03-01T07:08:24;1.60;87.50
57564;DHT22;43400;45.926;6.724;2023-03-01T07:10:57;1.60;87.70
57564;DHT22;43400;45.926;6.724;2023-03-01T07:13:29;1.60;86.90
57564;DHT22;43400;45.926;6.724;2023-03-01T07:16:00;1.70;87.00
57564;DHT22;43400;45.926;6.724;2023-03-01T07:18:32;1.60;86.80
57564;DHT22;43400;45.926;6.724;2023-03-01T07:21:13;1.60;87.30
57564;DHT22;43400;45.926;6.724;2023-03-01T07:23:47;1.70;87.40
57564;DHT22;43400;45.926;6.724;2023-03-01T07:26:19;1.80;87.00
57564;DHT22;43400;45.926;6.724;2023-03-01T07:28:50;1.70;86.40
57564;DHT22;43400;45.926;6.724;2023-03-01T07:31:22;1.90;87.10
57564;DHT22;43400;45.926;6.724;2023-03-01T07:33:55;1.80;86.30
57564;DHT22;43400;45.926;6.724;2023-03-01T07:36:26;1.80;86.10
57564;DHT22;43400;45.926;6.724;2023-03-01T07:38:58;1.80;86.10
57564;DHT22;43400;45.926;6.724;2023-03-01T07:41:29;1.90;86.40
57564;DHT22;43400;45.926;6.724;2023-03-01T07:44:01;1.80;86.10
57564;DHT22;43400;45.926;6.724;2023-03-01T07:46:33;1.80;85.90
57564;DHT22;43400;45.926;6.724;2023-03-01T07:49:04;1.80;86.00
57564;DHT22;43400;45.926;6.724;2023-03-01T07:51:36;1.70;85.80
57564;DHT22;43400;45.926;6.724;2023-03-01T07:54:08;1.70;85.70
57564;DHT22;43400;45.926;6.724;2023-03-01T07:56:39;1.70;85.90
57564;DHT22;43400;45.926;6.724;2023-03-01T07:59:11;1.70;85.70
57564;DHT22;43400;45.926;6.724;2023-03-01T08:01:43;1.60;86.10
57564;DHT22;43400;45.926;6.724;2023-03-01T08:04:14;1.70;85.60
57564;DHT22;43400;45.926;6.724;2023-03-01T08:06:46;1.70;85.60
57564;DHT22;43400;45.926;6.724;2023-03-01T08:09:18;1.70;85.30
57564;DHT22;43400;45.926;6.724;2023-03-01T08:11:49;1.70;85.50
57564;DHT22;43400;45.926;6.724;2023-03-01T08:14:21;1.60;85.30
57564;DHT22;43400;45.926;6.724;2023-03-01T08:16:53;1.60;85.60
57564;DHT22;43400;45.926;6.724;2023-03-01T08:19:24;1.60;85.70
57564;DHT22;43400;45.926;6.724;2023-03-01T08:21:56;1.60;85.70
57564;DHT22;43400;45.926;6.724;2023-03-01T08:24:28;1.70;85.30
57564;DHT22;43400;45.926;6.724;2023-03-01T08:26:59;1.90;85.10
57564;DHT22;43400;45.926;6.724;2023-03-01T08:29:32;2.00;85.20
57564;DHT22;43400;45.926;6.724;2023-03-01T08:32:04;2.00;84.40
57564;DHT22;43400;45.926;6.724;2023-03-01T08:34:35;2.00;84.00
57564;DHT22;43400;45.926;6.724;2023-03-01T08:37:06;2.10;83.80
57564;DHT22;43400;45.926;6.724;2023-03-01T08:39:38;2.20;84.30
57564;DHT22;43400;45.926;6.724;2023-03-01T08:42:09;2.30;83.20
57564;DHT22;43400;45.926;6.724;2023-03-01T08:44:41;2.50;83.00
57564;DHT22;43400;45.926;6.724;2023-03-01T08:47:12;2.50;82.90
57564;DHT22;43400;45.926;6.724;2023-03-01T08:49:44;2.70;82.70
57564;DHT22;43400;45.926;6.724;2023-03-01T08:52:15;2.70;82.10
57564;DHT22;43400;45.926;6.724;2023-03-01T08:54:48;2.70;81.40
57564;DHT22;43400;45.926;6.724;2023-03-01T08:57:19;2.60;81.50
57564;DHT22;43400;45.926;6.724;2023-03-01T08:59:51;2.50;81.50
57564;DHT22;43400;45.926;6.724;2023-03-01T09:02:22;2.40;81.20
57564;DHT22;43400;45.926;6.724;2023-03-01T09:04:54;2.40;82.10
57564;DHT22;43400;45.926;6.724;2023-03-01T09:07:26;2.40;82.80
57564;DHT22;43400;45.926;6.724;2023-03-01T09:09:58;2.60;81.40
57564;DHT22;43400;45.926;6.724;2023-03-01T09:31:01;2.90;80.40
57564;DHT22;43400;45.926;6.724;2023-03-01T09:33:36;3.20;80.00
57564;DHT22;43400;45.926;6.724;2023-03-01T10:06:02;3.10;79.90
57564;DHT22;43400;45.926;6.724;2023-03-01T10:11:25;3.40;78.10
57564;DHT22;43400;45.926;6.724;2023-03-01T10:17:09;4.00;77.00
57564;DHT22;43400;45.926;6.724;2023-03-01T10:19:45;4.40;76.60
57564;DHT22;43400;45.926;6.724;2023-03-01T10:22:29;4.60;76.80
57564;DHT22;43400;45.926;6.724;2023-03-01T10:25:02;4.60;74.50
57564;DHT22;43400;45.926;6.724;2023-03-01T10:30:34;4.20;74.10
57564;DHT22;43400;45.926;6.724;2023-03-01T10:33:31;4.00;74.30
57564;DHT22;43400;45.926;6.724;2023-03-01T10:36:03;3.90;75.10
57564;DHT22;43400;45.926;6.724;2023-03-01T10:38:53;4.10;75.50
57564;DHT22;43400;45.926;6.724;2023-03-01T10:41:26;4.20;74.40
57564;DHT22;43400;45.926;6.724;2023-03-01T10:43:58;4.00;75.10
57564;DHT22;43400;45.926;6.724;2023-03-01T10:46:33;4.30;76.00
57564;DHT22;43400;45.926;6.724;2023-03-01T10:49:22;4.40;74.70
57564;DHT22;43400;45.926;6.724;2023-03-01T10:51:54;4.60;74.10
57564;DHT22;43400;45.926;6.724;2023-03-01T10:54:29;4.60;73.30
57564;DHT22;43400;45.926;6.724;2023-03-01T10:57:04;5.00;72.50
57564;DHT22;43400;45.926;6.724;2023-03-01T10:59:38;5.20;71.20
57564;DHT22;43400;45.926;6.724;2023-03-01T11:02:29;5.30;71.50
57564;DHT22;43400;45.926;6.724;2023-03-01T11:05:20;6.20;69.00
57564;DHT22;43400;45.926;6.724;2023-03-01T11:07:55;7.90;67.40
57564;DHT22;43400;45.926;6.724;2023-03-01T11:10:29;9.30;61.50
57564;DHT22;43400;45.926;6.724;2023-03-01T11:13:14;10.20;57.30
57564;DHT22;43400;45.926;6.724;2023-03-01T11:16:07;10.60;56.60
57564;DHT22;43400;45.926;6.724;2023-03-01T11:18:40;10.40;55.60
57564;DHT22;43400;45.926;6.724;2023-03-01T11:21:12;11.00;53.60
57564;DHT22;43400;45.926;6.724;2023-03-01T11:23:46;10.80;53.50
57564;DHT22;43400;45.926;6.724;2023-03-01T11:26:18;11.60;51.40
57564;DHT22;43400;45.926;6.724;2023-03-01T11:28:56;11.90;50.80
57564;DHT22;43400;45.926;6.724;2023-03-01T11:31:31;11.90;50.50
57564;DHT22;43400;45.926;6.724;2023-03-01T11:34:11;12.30;50.40
57564;DHT22;43400;45.926;6.724;2023-03-01T11:36:50;13.20;50.00
57564;DHT22;43400;45.926;6.724;2023-03-01T11:39:37;12.70;50.00
57564;DHT22;43400;45.926;6.724;2023-03-01T11:42:17;12.70;48.70
57564;DHT22;43400;45.926;6.724;2023-03-01T11:44:54;12.90;47.70
57564;DHT22;43400;45.926;6.724;2023-03-01T11:50:19;13.50;45.90
57564;DHT22;43400;45.926;6.724;2023-03-01T11:53:14;14.00;46.00
57564;DHT22;43400;45.926;6.724;2023-03-01T11:56:20;13.60;46.60
57564;DHT22;43400;45.926;6.724;2023-03-01T11:59:07;13.10;46.50
57564;DHT22;43400;45.926;6.724;2023-03-01T12:08:32;14.50;44.40
57564;DHT22;43400;45.926;6.724;2023-03-01T12:19:28;14.80;43.40
57564;DHT22;43400;45.926;6.724;2023-03-01T12:27:40;13.80;45.40
57564;DHT22;43400;45.926;6.724;2023-03-01T12:33:04;14.60;45.30
57564;DHT22;43400;45.926;6.724;2023-03-01T12:42:00;14.30;45.10
57564;DHT22;43400;45.926;6.724;2023-03-01T12:48:21;15.00;44.30
57564;DHT22;43400;45.926;6.724;2023-03-01T12:50:41;15.50;44.30
57564;DHT22;43400;45.926;6.724;2023-03-01T12:55:54;14.90;43.50
57564;DHT22;43400;45.926;6.724;2023-03-01T12:58:49;14.40;45.00
57564;DHT22;43400;45.926;6.724;2023-03-01T13:01:42;14.60;44.20
57564;DHT22;43400;45.926;6.724;2023-03-01T13:04:35;14.70;44.50
57564;DHT22;43400;45.926;6.724;2023-03-01T13:10:47;13.60;46.20
57564;DHT22;43400;45.926;6.724;2023-03-01T13:13:26;13.30;47.40
57564;DHT22;43400;45.926;6.724;2023-03-01T13:19:19;13.40;47.80
57564;DHT22;43400;45.926;6.724;2023-03-01T13:21:53;14.00;46.90
57564;DHT22;43400;45.926;6.724;2023-03-01T13:24:27;14.30;47.30
57564;DHT22;43400;45.926;6.724;2023-03-01T13:29:51;13.50;47.20
57564;DHT22;43400;45.926;6.724;2023-03-01T13:32:33;13.50;47.50
57564;DHT22;43400;45.926;6.724;2023-03-01T13:37:46;13.20;48.30
57564;DHT22;43400;45.926;6.724;2023-03-01T13:42:51;13.20;47.00
57564;DHT22;43400;45.926;6.724;2023-03-01T13:45:39;13.20;48.80
57564;DHT22;43400;45.926;6.724;2023-03-01T13:48:23;13.20;48.90
57564;DHT22;43400;45.926;6.724;2023-03-01T13:51:02;13.20;47.50
57564;DHT22;43400;45.926;6.724;2023-03-01T13:53:36;13.10;48.40
57564;DHT22;43400;45.926;6.724;2023-03-01T13:56:14;13.90;47.80
57564;DHT22;43400;45.926;6.724;2023-03-01T13:58:59;14.20;47.00
57564;DHT22;43400;45.926;6.724;2023-03-01T14:01:35;14.60;45.30
57564;DHT22;43400;45.926;6.724;2023-03-01T14:09:52;14.00;47.10
57564;DHT22;43400;45.926;6.724;2023-03-01T14:12:39;13.50;46.60
57564;DHT22;43400;45.926;6.724;2023-03-01T14:15:22;13.50;46.80
57564;DHT22;43400;45.926;6.724;2023-03-01T14:20:31;14.50;46.00
57564;DHT22;43400;45.926;6.724;2023-03-01T14:23:11;14.20;46.00
57564;DHT22;43400;45.926;6.724;2023-03-01T14:25:55;14.40;46.90
57564;DHT22;43400;45.926;6.724;2023-03-01T14:28:29;13.90;47.20
57564;DHT22;43400;45.926;6.724;2023-03-01T14:31:02;12.90;48.20
57564;DHT22;43400;45.926;6.724;2023-03-01T14:33:36;12.80;49.30
57564;DHT22;43400;45.926;6.724;2023-03-01T14:36:12;12.90;48.40
57564;DHT22;43400;45.926;6.724;2023-03-01T14:38:46;13.00;49.00
57564;DHT22;43400;45.926;6.724;2023-03-01T14:41:23;13.10;48.80
57564;DHT22;43400;45.926;6.724;2023-03-01T14:44:02;13.20;48.90
57564;DHT22;43400;45.926;6.724;2023-03-01T14:46:40;13.10;48.80
57564;DHT22;43400;45.926;6.724;2023-03-01T14:49:16;13.50;48.10
57564;DHT22;43400;45.926;6.724;2023-03-01T14:51:58;13.50;48.20
57564;DHT22;43400;45.926;6.724;2023-03-01T14:54:53;13.70;48.00
57564;DHT22;43400;45.926;6.724;2023-03-01T14:57:26;13.80;47.10
57564;DHT22;43400;45.926;6.724;2023-03-01T15:00:00;13.70;47.50
57564;DHT22;43400;45.926;6.724;2023-03-01T15:02:33;13.90;47.90
57564;DHT22;43400;45.926;6.724;2023-03-01T15:05:05;13.80;47.30
57564;DHT22;43400;45.926;6.724;2023-03-01T15:07:40;12.90;48.00
57564;DHT22;43400;45.926;6.724;2023-03-01T15:10:20;12.20;49.20
57564;DHT22;43400;45.926;6.724;2023-03-01T15:12:51;12.50;49.90
57564;DHT22;43400;45.926;6.724;2023-03-01T15:15:44;12.20;50.10
57564;DHT22;43400;45.926;6.724;2023-03-01T15:18:27;12.00;50.80
57564;DHT22;43400;45.926;6.724;2023-03-01T15:21:33;12.10;50.50
57564;DHT22;43400;45.926;6.724;2023-03-01T15:26:45;11.60;51.10
57564;DHT22;43400;45.926;6.724;2023-03-01T15:29:18;12.00;51.10
57564;DHT22;43400;45.926;6.724;2023-03-01T15:32:00;11.90;51.20
57564;DHT22;43400;45.926;6.724;2023-03-01T15:34:35;11.90;51.60
57564;DHT22;43400;45.926;6.724;2023-03-01T15:37:46;11.50;51.70
57564;DHT22;43400;45.926;6.724;2023-03-01T15:40:25;11.20;51.70
57564;DHT22;43400;45.926;6.724;2023-03-01T15:43:01;11.50;51.90
57564;DHT22;43400;45.926;6.724;2023-03-01T15:45:33;11.30;51.40
57564;DHT22;43400;45.926;6.724;2023-03-01T15:48:25;11.50;52.00
57564;DHT22;43400;45.926;6.724;2023-03-01T15:50:58;11.60;51.90
57564;DHT22;43400;45.926;6.724;2023-03-01T15:53:30;10.90;52.20
57564;DHT22;43400;45.926;6.724;2023-03-01T15:56:02;10.40;52.90
57564;DHT22;43400;45.926;6.724;2023-03-01T15:58:34;9.90;54.20
57564;DHT22;43400;45.926;6.724;2023-03-01T16:01:14;9.90;54.90
57564;DHT22;43400;45.926;6.724;2023-03-01T16:03:46;9.80;54.90
57564;DHT22;43400;45.926;6.724;2023-03-01T16:06:18;9.30;55.80
57564;DHT22;43400;45.926;6.724;2023-03-01T16:08:50;9.40;56.30
57564;DHT22;43400;45.926;6.724;2023-03-01T16:11:21;9.30;56.80
57564;DHT22;43400;45.926;6.724;2023-03-01T16:13:53;8.90;56.70
57564;DHT22;43400;45.926;6.724;2023-03-01T16:16:25;8.60;57.70
57564;DHT22;43400;45.926;6.724;2023-03-01T16:18:57;8.40;58.60
57564;DHT22;43400;45.926;6.724;2023-03-01T16:21:28;7.90;59.40
57564;DHT22;43400;45.926;6.724;2023-03-01T16:24:00;7.60;59.80
57564;DHT22;43400;45.926;6.724;2023-03-01T16:26:32;7.40;60.60
57564;DHT22;43400;45.926;6.724;2023-03-01T16:29:04;7.30;61.50
57564;DHT22;43400;45.926;6.724;2023-03-01T16:31:35;7.00;61.60
57564;DHT22;43400;45.926;6.724;2023-03-01T16:34:09;6.80;62.60
57564;DHT22;43400;45.926;6.724;2023-03-01T16:36:42;6.50;63.20
57564;DHT22;43400;45.926;6.724;2023-03-01T16:39:14;6.40;63.70
57564;DHT22;43400;45.926;6.724;2023-03-01T16:41:46;6.20;65.10
57564;DHT22;43400;45.926;6.724;2023-03-01T16:44:17;5.90;65.70
57564;DHT22;43400;45.926;6.724;2023-03-01T16:46:49;5.80;65.70
57564;DHT22;43400;45.926;6.724;2023-03-01T16:49:21;5.50;67.00
57564;DHT22;43400;45.926;6.724;2023-03-01T16:51:55;5.50;67.40
57564;DHT22;43400;45.926;6.724;2023-03-01T16:54:26;5.50;67.20
57564;DHT22;43400;45.926;6.724;2023-03-01T16:56:58;5.50;67.80
57564;DHT22;43400;45.926;6.724;2023-03-01T16:59:30;5.30;68.00
57564;DHT22;43400;45.926;6.724;2023-03-01T17:02:02;5.00;68.60
57564;DHT22;43400;45.926;6.724;2023-03-01T17:04:33;4.80;69.50
57564;DHT22;43400;45.926;6.724;2023-03-01T17:07:05;4.90;69.60
57564;DHT22;43400;45.926;6.724;2023-03-01T17:09:37;5.00;69.90
57564;DHT22;43400;45.926;6.724;2023-03-01T17:12:09;5.00;70.20
57564;DHT22;43400;45.926;6.724;2023-03-01T17:14:42;4.80;69.90
57564;DHT22;43400;45.926;6.724;2023-03-01T17:17:14;4.70;70.30
57564;DHT22;43400;45.926;6.724;2023-03-01T17:19:46;4.60;71.10
57564;DHT22;43400;45.926;6.724;2023-03-01T17:22:18;4.50;71.30
57564;DHT22;43400;45.926;6.724;2023-03-01T17:24:49;4.50;71.30
57564;DHT22;43400;45.926;6.724;2023-03-01T17:27:21;4.40;72.00
57564;DHT22;43400;45.926;6.724;2023-03-01T17:29:53;4.40;72.20
57564;DHT22;43400;45.926;6.724;2023-03-01T17:32:24;4.30;72.10
57564;DHT22;43400;45.926;6.724;2023-03-01T17:34:56;4.30;72.60
57564;DHT22;43400;45.926;6.724;2023-03-01T17:37:27;4.20;72.50
57564;DHT22;43400;45.926;6.724;2023-03-01T17:39:59;4.20;72.70
57564;DHT22;43400;45.926;6.724;2023-03-01T17:42:31;4.20;73.10
57564;DHT22;43400;45.926;6.724;2023-03-01T17:45:03;4.20;73.30
57564;DHT22;43400;45.926;6.724;2023-03-01T17:47:36;4.20;73.50
57564;DHT22;43400;45.926;6.724;2023-03-01T17:50:08;4.10;73.00
57564;DHT22;43400;45.926;6.724;2023-03-01T17:52:40;4.10;73.50
57564;DHT22;43400;45.926;6.724;2023-03-01T17:55:11;4.00;73.70
57564;DHT22;43400;45.926;6.724;2023-03-01T17:57:43;4.00;73.90
57564;DHT22;43400;45.926;6.724;2023-03-01T18:00:15;3.90;74.00
57564;DHT22;43400;45.926;6.724;2023-03-01T18:02:47;3.70;74.70
57564;DHT22;43400;45.926;6.724;2023-03-01T18:05:19;3.60;75.40
57564;DHT22;43400;45.926;6.724;2023-03-01T18:07:52;3.70;75.10
57564;DHT22;43400;45.926;6.724;2023-03-01T18:10:23;3.70;75.30
57564;DHT22;43400;45.926;6.724;2023-03-01T18:12:55;3.60;75.20
57564;DHT22;43400;45.926;6.724;2023-03-01T18:15:27;3.50;75.30
57564;DHT22;43400;45.926;6.724;2023-03-01T18:17:58;3.50;75.60
57564;DHT22;43400;45.926;6.724;2023-03-01T18:20:30;3.50;75.80
57564;DHT22;43400;45.926;6.724;2023-03-01T18:23:01;3.50;75.70
57564;DHT22;43400;45.926;6.724;2023-03-01T18:25:33;3.30;76.00
57564;DHT22;43400;45.926;6.724;2023-03-01T18:28:04;3.30;76.40
57564;DHT22;43400;45.926;6.724;2023-03-01T18:30:36;3.20;76.80
57564;DHT22;43400;45.926;6.724;2023-03-01T18:33:08;3.20;77.10
57564;DHT22;43400;45.926;6.724;2023-03-01T18:35:39;3.10;77.60
57564;DHT22;43400;45.926;6.724;2023-03-01T18:38:11;3.10;77.90